Decoded Metar for LFML (MARSEILLE in FRANCE) (IATA:MRS) | Meteo·Mobile Aviation Weather
aviador You're here:

LFML Decoded Metar

MARSEILLE in FRANCE
Report Time2019-02-22 00:30:00
UTC Time2019-02-22 00:46:56
Flight Rules ifr IFR
Wind270° at 03 kt
W.Decomp.*RWY 31: 2.3 kt HW 2 kt LCW
W.Rank270° ranks 11
Current wind is below 270° avg. (8.5)
Visibility4300 m
Phenomena:Mist
Clouds:Overcast 007 Hf
Expected CloudBase > 400 ft AGL from Temp-Dew spread
Ceiling700 ft
Temp09°C (ISA -6)
Dew Point08°C (94% RH)
AAT7.5°C
QNH1028 hPa
Density Alt-935 ft
Elevation118 ft
Report Wrong Elevation
Raw Report
LFML 220030Z AUTO 27003KT 4300 BR OVC007 09/08 Q1028 TEMPO
BKN014=

Extra information for LFML:More info

Metar Taf Metar & Taf Last 4 Metars F.Rules Stats Wind Profile Meteogram Temp Stats Airport Information Weather charts Add Link Nearby VenuesMetar ALERT Operation Metar Decoded Social comments